Terminal Aerodrome Forecast
Issued by NWS

Home | Current Version | Previous Version | Text Only | Print | Product List | Glossary On
Versions: 1 2 3 4 5 6 7 8 9 10 11 12 13 14 15 16 17 18 19
901
FTUS46 KSEW 302320
TAFBLI
TAF
KBLI 302320Z 3100/3124 18010KT P6SM SCT040 BKN120
     FM310400 18008KT P6SM BKN040 BKN120
     FM311200 18008KT P6SM -RA OVC035
     FM312200 18008KT P6SM VCSH BKN040=

USA.gov is the U.S. government's official web portal to all federal, state and local government web resources and services.